Time;durP1;ratioP1;P1;durP2;ratioP2;P2;SDS_P1;SDS_P2;PMS_P1;PMS_P2;Temp;Humidity;BMP_temperature;BMP_pressure;BME280_temperature;BME280_humidity;BME280_pressure;Samples;Min_cycle;Max_cycle;Signal;HPM_P1;HPM_P2
2023/01/14 00:01:44;;;;;;;;;;;;;;;;;;4998506;28;4656;-66
2023/01/14 00:04:09;;;;;;;;;;;;;;;;;;5002495;28;6136;-69
2023/01/14 00:06:37;;;;;;;;;;;;;;;;;;4997142;28;3382;-67
2023/01/14 00:09:03;;;;;;;;;;;;;;;;;;5005741;28;5018;-68
2023/01/14 00:11:47;;;;;;;;;;;;;;;;;;5004626;28;4509;-68
2023/01/14 00:14:30;;;;;;;;;;;;;;;;;;5001740;28;5348;-63
2023/01/14 00:16:56;;;;;;;;;;;;;;;;;;5004408;28;5064;-61
2023/01/14 00:19:21;;;;;;;;;;;;;;;;;;4999975;28;4690;-66
2023/01/14 00:21:47;;;;;;;;;;;;;;;;;;4983833;28;3347;-67
2023/01/14 00:24:12;;;;;;;;;;;;;;;;;;4976498;28;4984;-66
2023/01/14 00:26:37;;;;;;;;;;;;;;;;;;4982291;28;5287;-67
2023/01/14 00:29:03;;;;;;;;;;;;;;;;;;4989219;28;5482;-67
2023/01/14 00:31:28;;;;;;;;;;;;;;;;;;5001136;28;5121;-66
2023/01/14 00:33:53;;;;;;;;;;;;;;;;;;4982947;28;4551;-66
2023/01/14 00:36:19;;;;;;;;;;;;;;;;;;5003699;28;3387;-68
2023/01/14 00:38:45;;;;;;;;;;;;;;;;;;5002090;28;5077;-68
2023/01/14 00:41:11;;;;;;;;;;;;;;;;;;5004640;28;5023;-69
2023/01/14 00:43:37;;;;;;;;;;;;;;;;;;4999853;28;5209;-66
2023/01/14 00:46:05;;;;;;;;;;;;;;;;;;5002409;28;5082;-66
2023/01/14 00:48:30;;;;;;;;;;;;;;;;;;5003247;28;3475;-66
2023/01/14 00:50:55;;;;;;;;;;;;;;;;;;5003836;28;4467;-66
2023/01/14 00:53:21;;;;;;;;;;;;;;;;;;4998323;28;4760;-66
2023/01/14 00:55:46;;;;;;;;;;;;;;;;;;4998709;28;5068;-68
2023/01/14 00:58:11;;;;;;;;;;;;;;;;;;4994083;28;4523;-65
2023/01/14 01:00:36;;;;;;;;;;;;;;;;;;5004654;28;1075;-66
2023/01/14 01:03:02;;;;;;;;;;;;;;;;;;5003601;28;5265;-67
2023/01/14 01:05:27;;;;;;;;;;;;;;;;;;5005706;28;4634;-69
2023/01/14 01:07:52;;;;;;;;;;;;;;;;;;4996588;28;4604;-69
2023/01/14 01:10:17;;;;;;;;;;;;;;;;;;5001062;28;4504;-68
2023/01/14 01:12:43;;;;;;;;;;;;;;;;;;4998326;28;3577;-69
2023/01/14 01:15:08;;;;;;;;;;;;;;;;;;5002642;28;4986;-67
2023/01/14 01:17:33;;;;;;;;;;;;;;;;;;4997238;28;5152;-66
2023/01/14 01:19:59;;;;;;;;;;;;;;;;;;5006403;28;5048;-69
2023/01/14 01:22:24;;;;;;;;;;;;;;;;;;4995536;28;5019;-65
2023/01/14 01:24:50;;;;;;;;;;;;;;;;;;4992221;28;3475;-69
2023/01/14 01:27:15;;;;;;;;;;;;;;;;;;4998538;28;5036;-69
2023/01/14 01:29:41;;;;;;;;;;;;;;;;;;4997491;28;5163;-70
2023/01/14 01:32:06;;;;;;;;;;;;;;;;;;4997383;28;5132;-69
2023/01/14 01:34:31;;;;;;;;;;;;;;;;;;5003402;28;5109;-67
2023/01/14 01:36:56;;;;;;;;;;;;;;;;;;4999920;28;5229;-66
2023/01/14 01:39:22;;;;;;;;;;;;;;;;;;5005708;28;3666;-63
2023/01/14 01:41:47;;;;;;;;;;;;;;;;;;5002224;28;4984;-68
2023/01/14 01:44:12;;;;;;;;;;;;;;;;;;5002022;28;5085;-68
2023/01/14 01:46:38;;;;;;;;;;;;;;;;;;5004939;28;5307;-68
2023/01/14 01:49:22;;;;;;;;;;;;;;;;;;5005004;28;5069;-69
2023/01/14 01:51:49;;;;;;;;;;;;;;;;;;5005734;28;3320;-66
2023/01/14 01:54:14;;;;;;;;;;;;;;;;;;5001002;28;4950;-67
2023/01/14 01:56:40;;;;;;;;;;;;;;;;;;4999452;28;4482;-68
2023/01/14 01:59:06;;;;;;;;;;;;;;;;;;5005371;28;5104;-63
2023/01/14 02:01:32;;;;;;;;;;;;;;;;;;5003740;28;5052;-68
2023/01/14 02:03:57;;;;;;;;;;;;;;;;;;5004991;28;5216;-64
2023/01/14 02:06:23;;;;;;;;;;;;;;;;;;5000672;28;3360;-65
2023/01/14 02:08:49;;;;;;;;;;;;;;;;;;5003894;28;5141;-69
2023/01/14 02:11:29;;;;;;;;;;;;;;;;;;5005086;28;4949;-66
2023/01/14 02:14:33;;;;;;;;;;;;;;;;;;4996796;28;4884;-68
2023/01/14 02:17:03;;;;;;;;;;;;;;;;;;4979986;28;5154;-69
2023/01/14 02:19:40;;;;;;;;;;;;;;;;;;4964220;28;5051;-68
2023/01/14 02:22:15;;;;;;;;;;;;;;;;;;4994582;28;4855;-66
2023/01/14 02:24:40;;;;;;;;;;;;;;;;;;5000111;28;3363;-60
2023/01/14 02:27:24;;;;;;;;;;;;;;;;;;5008003;28;5181;-66
2023/01/14 02:29:52;;;;;;;;;;;;;;;;;;5013166;28;4692;-69
2023/01/14 02:32:17;;;;;;;;;;;;;;;;;;5009534;28;4986;-69
2023/01/14 02:34:43;;;;;;;;;;;;;;;;;;5005314;28;5108;-59
2023/01/14 02:37:17;;;;;;;;;;;;;;;;;;5009798;28;5072;-66
2023/01/14 02:39:46;;;;;;;;;;;;;;;;;;5006697;28;3304;-69
2023/01/14 02:45:04;;;;;;;;;;;;;;;;;;5007336;28;5063;-68
2023/01/14 02:47:29;;;;;;;;;;;;;;;;;;5002795;28;5151;-69
2023/01/14 02:49:55;;;;;;;;;;;;;;;;;;5000610;28;4663;-69
2023/01/14 02:52:20;;;;;;;;;;;;;;;;;;5003583;28;4688;-69
2023/01/14 02:55:11;;;;;;;;;;;;;;;;;;5010526;28;1145;-67
2023/01/14 02:57:46;;;;;;;;;;;;;;;;;;4983470;28;4390;-67
2023/01/14 03:00:11;;;;;;;;;;;;;;;;;;5006189;28;4824;-68
2023/01/14 03:02:42;;;;;;;;;;;;;;;;;;5008351;28;4542;-65
2023/01/14 03:05:16;;;;;;;;;;;;;;;;;;5009024;28;5016;-69
2023/01/14 03:07:41;;;;;;;;;;;;;;;;;;5005428;28;4540;-66
2023/01/14 03:10:15;;;;;;;;;;;;;;;;;;5005707;28;5069;-67
2023/01/14 03:12:59;;;;;;;;;;;;;;;;;;5009718;28;1911;-69
2023/01/14 03:15:26;;;;;;;;;;;;;;;;;;5009335;28;4719;-68
2023/01/14 03:17:58;;;;;;;;;;;;;;;;;;5006174;28;4489;-66
2023/01/14 03:20:34;;;;;;;;;;;;;;;;;;5009490;28;5052;-68
2023/01/14 03:23:00;;;;;;;;;;;;;;;;;;5006881;28;4981;-67
2023/01/14 03:25:25;;;;;;;;;;;;;;;;;;5018030;28;5068;-69
2023/01/14 03:27:51;;;;;;;;;;;;;;;;;;5006067;28;3317;-68
2023/01/14 03:30:18;;;;;;;;;;;;;;;;;;5008301;28;5041;-68
2023/01/14 03:32:51;;;;;;;;;;;;;;;;;;4997511;28;5259;-68
2023/01/14 03:35:24;;;;;;;;;;;;;;;;;;5003875;28;4943;-68
2023/01/14 03:37:50;;;;;;;;;;;;;;;;;;4999889;28;5094;-69
2023/01/14 03:40:15;;;;;;;;;;;;;;;;;;4997609;28;4567;-69
2023/01/14 03:42:45;;;;;;;;;;;;;;;;;;5005950;28;3302;-69
2023/01/14 03:45:27;;;;;;;;;;;;;;;;;;5003535;28;4998;-68
2023/01/14 03:47:52;;;;;;;;;;;;;;;;;;4996097;28;5064;-62
2023/01/14 03:50:18;;;;;;;;;;;;;;;;;;5002179;28;5229;-68
2023/01/14 03:53:02;;;;;;;;;;;;;;;;;;5003185;28;4992;-69
2023/01/14 03:55:40;;;;;;;;;;;;;;;;;;5004467;28;5078;-67
2023/01/14 03:58:12;;;;;;;;;;;;;;;;;;5005953;28;5137;-66
2023/01/14 04:00:57;;;;;;;;;;;;;;;;;;5001086;28;3383;-66
2023/01/14 04:03:23;;;;;;;;;;;;;;;;;;5004142;28;4618;-68
2023/01/14 04:05:48;;;;;;;;;;;;;;;;;;5002639;28;5155;-65
2023/01/14 04:08:13;;;;;;;;;;;;;;;;;;5004776;28;5067;-67
2023/01/14 04:10:39;;;;;;;;;;;;;;;;;;4998351;28;4598;-66
2023/01/14 04:15:48;;;;;;;;;;;;;;;;;;5004544;28;3506;-67
2023/01/14 04:18:13;;;;;;;;;;;;;;;;;;4995892;28;4418;-65
2023/01/14 04:20:38;;;;;;;;;;;;;;;;;;5001859;28;5193;-67
2023/01/14 04:23:04;;;;;;;;;;;;;;;;;;5002940;28;4513;-59
2023/01/14 04:25:29;;;;;;;;;;;;;;;;;;5005463;28;5187;-64
2023/01/14 04:27:54;;;;;;;;;;;;;;;;;;4997573;28;5100;-62
2023/01/14 04:30:19;;;;;;;;;;;;;;;;;;5007198;28;4407;-68
2023/01/14 04:32:45;;;;;;;;;;;;;;;;;;4982197;28;5135;-67
2023/01/14 04:35:10;;;;;;;;;;;;;;;;;;4989764;28;5083;-63
2023/01/14 04:37:35;;;;;;;;;;;;;;;;;;4997661;28;5232;-67
2023/01/14 04:40:01;;;;;;;;;;;;;;;;;;4999592;28;4708;-65
2023/01/14 04:42:26;;;;;;;;;;;;;;;;;;5001580;28;3747;-62
2023/01/14 04:44:52;;;;;;;;;;;;;;;;;;4999431;28;4513;-64
2023/01/14 04:47:17;;;;;;;;;;;;;;;;;;5000460;28;4535;-68
2023/01/14 04:49:42;;;;;;;;;;;;;;;;;;5000475;28;4950;-66
2023/01/14 04:52:07;;;;;;;;;;;;;;;;;;4996644;28;5238;-68
2023/01/14 04:54:33;;;;;;;;;;;;;;;;;;5002410;28;3527;-63
2023/01/14 04:56:58;;;;;;;;;;;;;;;;;;5003478;28;5114;-69
2023/01/14 04:59:23;;;;;;;;;;;;;;;;;;4999468;28;4757;-67
2023/01/14 05:01:48;;;;;;;;;;;;;;;;;;5003315;28;5057;-66
2023/01/14 05:04:13;;;;;;;;;;;;;;;;;;4997911;28;5102;-68
2023/01/14 05:06:39;;;;;;;;;;;;;;;;;;5001830;28;3325;-67
2023/01/14 05:09:04;;;;;;;;;;;;;;;;;;4997957;28;5140;-62
2023/01/14 05:11:29;;;;;;;;;;;;;;;;;;5001868;28;5113;-64
2023/01/14 05:13:54;;;;;;;;;;;;;;;;;;4999224;28;5145;-67
2023/01/14 05:16:20;;;;;;;;;;;;;;;;;;4998000;28;5070;-68
2023/01/14 05:18:45;;;;;;;;;;;;;;;;;;4999287;28;3463;-67
2023/01/14 05:21:10;;;;;;;;;;;;;;;;;;5003435;28;5122;-68
2023/01/14 05:23:37;;;;;;;;;;;;;;;;;;4999258;28;5006;-67
2023/01/14 05:26:02;;;;;;;;;;;;;;;;;;5004553;28;5083;-67
2023/01/14 05:28:27;;;;;;;;;;;;;;;;;;4993226;28;5110;-64
2023/01/14 05:30:53;;;;;;;;;;;;;;;;;;5000319;28;5075;-68
2023/01/14 05:33:18;;;;;;;;;;;;;;;;;;5005369;28;3523;-64
2023/01/14 05:35:43;;;;;;;;;;;;;;;;;;4998980;28;5081;-66
2023/01/14 05:38:09;;;;;;;;;;;;;;;;;;5002649;28;5342;-62
2023/01/14 05:40:34;;;;;;;;;;;;;;;;;;5003560;28;5128;-70
2023/01/14 05:45:49;;;;;;;;;;;;;;;;;;5000283;28;3924;-67
2023/01/14 05:48:15;;;;;;;;;;;;;;;;;;5001516;28;4940;-68
2023/01/14 05:50:40;;;;;;;;;;;;;;;;;;4987653;28;4993;-68
2023/01/14 05:53:05;;;;;;;;;;;;;;;;;;4977465;28;5184;-63
2023/01/14 05:55:31;;;;;;;;;;;;;;;;;;4982082;28;5030;-65
2023/01/14 05:57:59;;;;;;;;;;;;;;;;;;4980398;28;4938;-62
2023/01/14 06:08:34;;;;;;;;;;;;;;;;;;5004698;28;5172;-68
2023/01/14 06:11:00;;;;;;;;;;;;;;;;;;4993262;28;5162;-69
2023/01/14 06:13:25;;;;;;;;;;;;;;;;;;4979604;28;5106;-67
2023/01/14 06:15:55;;;;;;;;;;;;;;;;;;4986087;28;3361;-68
2023/01/14 06:18:22;;;;;;;;;;;;;;;;;;4986651;28;4889;-69
2023/01/14 06:20:50;;;;;;;;;;;;;;;;;;4999239;28;5389;-67
2023/01/14 06:23:16;;;;;;;;;;;;;;;;;;5000788;28;5316;-65
2023/01/14 06:25:44;;;;;;;;;;;;;;;;;;5005954;28;5322;-67
2023/01/14 06:28:10;;;;;;;;;;;;;;;;;;5006432;28;4529;-66
2023/01/14 06:30:35;;;;;;;;;;;;;;;;;;5008764;28;4475;-61
2023/01/14 06:33:00;;;;;;;;;;;;;;;;;;5002607;28;5126;-60
2023/01/14 06:35:25;;;;;;;;;;;;;;;;;;5004668;28;4558;-67
2023/01/14 06:37:51;;;;;;;;;;;;;;;;;;5009796;28;5053;-68
2023/01/14 06:40:16;;;;;;;;;;;;;;;;;;4998427;28;5096;-68
2023/01/14 06:42:42;;;;;;;;;;;;;;;;;;5005765;28;3290;-66
2023/01/14 06:45:08;;;;;;;;;;;;;;;;;;5005642;28;4900;-68
2023/01/14 06:47:33;;;;;;;;;;;;;;;;;;5005828;28;4992;-69
2023/01/14 06:49:58;;;;;;;;;;;;;;;;;;5001684;28;4723;-68
2023/01/14 06:52:23;;;;;;;;;;;;;;;;;;5004456;28;5171;-69
2023/01/14 06:54:51;;;;;;;;;;;;;;;;;;5004179;28;3236;-69
2023/01/14 06:57:16;;;;;;;;;;;;;;;;;;4998138;28;5073;-68
2023/01/14 06:59:41;;;;;;;;;;;;;;;;;;5003696;28;5076;-66
2023/01/14 07:02:08;;;;;;;;;;;;;;;;;;5006039;28;4975;-69
2023/01/14 07:04:34;;;;;;;;;;;;;;;;;;4988059;28;4548;-69
2023/01/14 07:06:59;;;;;;;;;;;;;;;;;;5002905;28;4582;-65
2023/01/14 07:09:24;;;;;;;;;;;;;;;;;;5005002;28;3430;-65
2023/01/14 07:11:50;;;;;;;;;;;;;;;;;;5000865;28;5126;-66
2023/01/14 07:14:15;;;;;;;;;;;;;;;;;;4995035;28;5186;-65
2023/01/14 07:16:40;;;;;;;;;;;;;;;;;;4998979;28;5316;-66
2023/01/14 07:19:05;;;;;;;;;;;;;;;;;;5004736;28;5091;-64
2023/01/14 07:21:31;;;;;;;;;;;;;;;;;;4996412;28;3628;-60
2023/01/14 07:23:56;;;;;;;;;;;;;;;;;;4992608;28;4605;-70
2023/01/14 07:26:21;;;;;;;;;;;;;;;;;;4999474;28;5101;-69
2023/01/14 07:28:46;;;;;;;;;;;;;;;;;;5000647;28;5265;-68
2023/01/14 07:31:11;;;;;;;;;;;;;;;;;;4991771;28;5195;-66
2023/01/14 07:33:37;;;;;;;;;;;;;;;;;;4994173;28;3546;-65
2023/01/14 07:36:02;;;;;;;;;;;;;;;;;;4998212;28;5105;-70
2023/01/14 07:38:27;;;;;;;;;;;;;;;;;;5003964;28;4519;-68
2023/01/14 07:40:54;;;;;;;;;;;;;;;;;;5000362;28;5189;-67
2023/01/14 07:43:19;;;;;;;;;;;;;;;;;;4995699;28;5022;-67
2023/01/14 07:45:45;;;;;;;;;;;;;;;;;;4996760;28;3736;-67
2023/01/14 07:48:10;;;;;;;;;;;;;;;;;;4994321;28;4423;-64
2023/01/14 07:50:36;;;;;;;;;;;;;;;;;;4994140;28;5361;-67
2023/01/14 07:53:01;;;;;;;;;;;;;;;;;;4997101;28;4675;-63
2023/01/14 07:55:26;;;;;;;;;;;;;;;;;;4993479;28;5183;-66
2023/01/14 07:57:51;;;;;;;;;;;;;;;;;;4997627;28;4095;-64
2023/01/14 08:00:17;;;;;;;;;;;;;;;;;;4997909;28;5601;-62
2023/01/14 08:02:42;;;;;;;;;;;;;;;;;;4997227;28;5015;-62
2023/01/14 08:05:08;;;;;;;;;;;;;;;;;;4996010;28;5226;-59
2023/01/14 08:07:33;;;;;;;;;;;;;;;;;;5003399;28;5184;-64
2023/01/14 08:09:58;;;;;;;;;;;;;;;;;;5002926;28;5092;-64
2023/01/14 08:12:24;;;;;;;;;;;;;;;;;;4996826;28;3832;-68
2023/01/14 08:14:49;;;;;;;;;;;;;;;;;;4997428;28;5137;-66
2023/01/14 08:17:15;;;;;;;;;;;;;;;;;;4999290;28;4497;-68
2023/01/14 08:19:40;;;;;;;;;;;;;;;;;;4994526;28;5098;-69
2023/01/14 08:22:05;;;;;;;;;;;;;;;;;;4996844;28;5092;-60
2023/01/14 08:24:30;;;;;;;;;;;;;;;;;;4999300;28;3743;-63
2023/01/14 08:26:56;;;;;;;;;;;;;;;;;;4999338;28;4727;-68
2023/01/14 08:29:21;;;;;;;;;;;;;;;;;;5004058;28;5333;-70
2023/01/14 08:31:51;;;;;;;;;;;;;;;;;;4998727;28;5142;-64
2023/01/14 08:34:16;;;;;;;;;;;;;;;;;;4998467;28;5091;-63
2023/01/14 08:36:42;;;;;;;;;;;;;;;;;;4999580;28;3567;-61
2023/01/14 08:39:07;;;;;;;;;;;;;;;;;;4999249;28;5129;-67
2023/01/14 08:41:32;;;;;;;;;;;;;;;;;;4993499;28;5004;-66
2023/01/14 08:43:58;;;;;;;;;;;;;;;;;;4997101;28;5133;-66
2023/01/14 08:46:23;;;;;;;;;;;;;;;;;;4994494;28;5598;-66
2023/01/14 08:48:48;;;;;;;;;;;;;;;;;;4995545;28;3894;-66
2023/01/14 08:51:14;;;;;;;;;;;;;;;;;;4995427;28;5112;-66
2023/01/14 08:53:39;;;;;;;;;;;;;;;;;;4994852;28;5547;-67
2023/01/14 08:56:05;;;;;;;;;;;;;;;;;;4993527;28;5094;-66
2023/01/14 08:58:30;;;;;;;;;;;;;;;;;;4995579;28;5183;-69
2023/01/14 09:00:59;;;;;;;;;;;;;;;;;;5003776;28;5397;-67
2023/01/14 09:03:25;;;;;;;;;;;;;;;;;;5001631;28;3319;-67
2023/01/14 09:05:57;;;;;;;;;;;;;;;;;;5006531;28;4564;-70
2023/01/14 09:19:20;;;;;;;;;;;;;;;;;;5003268;28;4513;-60
2023/01/14 09:21:45;;;;;;;;;;;;;;;;;;5004610;28;3191;-63
2023/01/14 09:24:11;;;;;;;;;;;;;;;;;;5003748;28;4649;-60
2023/01/14 09:26:36;;;;;;;;;;;;;;;;;;4998752;28;5019;-61
2023/01/14 09:29:02;;;;;;;;;;;;;;;;;;5005044;28;5026;-60
2023/01/14 09:31:27;;;;;;;;;;;;;;;;;;5004876;28;5290;-60
2023/01/14 09:33:52;;;;;;;;;;;;;;;;;;4995652;28;5704;-57
2023/01/14 09:36:17;;;;;;;;;;;;;;;;;;4978040;28;3495;-59
2023/01/14 09:38:43;;;;;;;;;;;;;;;;;;4983257;28;4658;-60
2023/01/14 09:41:17;;;;;;;;;;;;;;;;;;4988957;28;5202;-59
2023/01/14 09:43:43;;;;;;;;;;;;;;;;;;4985341;28;4776;-60
2023/01/14 09:46:09;;;;;;;;;;;;;;;;;;4983123;28;4755;-60
2023/01/14 09:48:35;;;;;;;;;;;;;;;;;;4984439;28;3368;-60
2023/01/14 09:51:06;;;;;;;;;;;;;;;;;;4980970;28;5242;-59
2023/01/14 09:53:34;;;;;;;;;;;;;;;;;;4993517;28;5055;-61
2023/01/14 09:56:23;;;;;;;;;;;;;;;;;;4993207;28;5069;-59
2023/01/14 09:58:55;;;;;;;;;;;;;;;;;;4977763;28;5029;-59
2023/01/14 10:01:23;;;;;;;;;;;;;;;;;;5002583;28;4493;-59
2023/01/14 10:03:52;;;;;;;;;;;;;;;;;;5002714;28;3563;-60
2023/01/14 10:06:17;;;;;;;;;;;;;;;;;;4999939;28;5036;-69
2023/01/14 10:08:47;;;;;;;;;;;;;;;;;;5000080;28;5070;-64
2023/01/14 10:11:12;;;;;;;;;;;;;;;;;;4985821;28;5354;-64
2023/01/14 10:13:57;;;;;;;;;;;;;;;;;;4977758;28;5044;-63
2023/01/14 10:16:27;;;;;;;;;;;;;;;;;;4971467;28;5229;-64
2023/01/14 10:18:58;;;;;;;;;;;;;;;;;;5000363;28;3653;-66
2023/01/14 10:21:31;;;;;;;;;;;;;;;;;;4979742;28;5325;-67
2023/01/14 10:23:57;;;;;;;;;;;;;;;;;;4978016;28;5047;-62
2023/01/14 10:26:25;;;;;;;;;;;;;;;;;;4994128;28;5051;-67
2023/01/14 10:28:51;;;;;;;;;;;;;;;;;;4998131;28;5312;-62
2023/01/14 10:31:21;;;;;;;;;;;;;;;;;;5000772;28;4473;-65
2023/01/14 10:33:46;;;;;;;;;;;;;;;;;;5003418;28;1922;-65
2023/01/14 10:36:13;;;;;;;;;;;;;;;;;;4997763;28;4585;-63
2023/01/14 10:38:40;;;;;;;;;;;;;;;;;;4984303;28;4661;-63
2023/01/14 10:41:06;;;;;;;;;;;;;;;;;;4984011;28;4962;-62
2023/01/14 10:43:38;;;;;;;;;;;;;;;;;;4976618;28;5024;-65
2023/01/14 10:46:05;;;;;;;;;;;;;;;;;;4980526;28;5194;-62
2023/01/14 10:48:36;;;;;;;;;;;;;;;;;;5005280;28;3717;-66
2023/01/14 10:51:37;;;;;;;;;;;;;;;;;;5000244;28;5957;-65
2023/01/14 10:54:09;;;;;;;;;;;;;;;;;;4999899;28;4495;-66
2023/01/14 10:56:34;;;;;;;;;;;;;;;;;;5009754;28;5103;-63
2023/01/14 10:58:59;;;;;;;;;;;;;;;;;;5006144;28;4782;-64
2023/01/14 11:01:24;;;;;;;;;;;;;;;;;;5008169;28;4527;-65
2023/01/14 11:03:50;;;;;;;;;;;;;;;;;;5009453;28;3566;-66
2023/01/14 11:06:16;;;;;;;;;;;;;;;;;;5006073;28;4946;-65
2023/01/14 11:08:41;;;;;;;;;;;;;;;;;;5009343;28;5425;-66
2023/01/14 11:11:07;;;;;;;;;;;;;;;;;;5007838;28;4723;-65
2023/01/14 11:13:43;;;;;;;;;;;;;;;;;;5006793;28;4555;-71
2023/01/14 11:16:21;;;;;;;;;;;;;;;;;;5008776;28;4593;-60
2023/01/14 11:18:53;;;;;;;;;;;;;;;;;;5010103;28;1196;-59
2023/01/14 11:21:20;;;;;;;;;;;;;;;;;;5000702;28;4532;-60
2023/01/14 11:24:07;;;;;;;;;;;;;;;;;;5002459;28;4514;-59
2023/01/14 11:26:39;;;;;;;;;;;;;;;;;;5011776;28;5253;-59
2023/01/14 11:29:13;;;;;;;;;;;;;;;;;;4998987;28;4990;-61
2023/01/14 11:31:38;;;;;;;;;;;;;;;;;;4983665;28;4926;-61
2023/01/14 11:34:04;;;;;;;;;;;;;;;;;;4983083;28;4781;-62
2023/01/14 11:36:31;;;;;;;;;;;;;;;;;;4986740;28;3687;-61
2023/01/14 11:38:57;;;;;;;;;;;;;;;;;;5017292;28;5344;-59
2023/01/14 11:41:32;;;;;;;;;;;;;;;;;;5014715;28;5009;-60
2023/01/14 11:44:00;;;;;;;;;;;;;;;;;;4999839;28;4540;-60
2023/01/14 11:46:26;;;;;;;;;;;;;;;;;;5006909;28;5328;-61
2023/01/14 11:49:10;;;;;;;;;;;;;;;;;;4996790;28;3467;-60
2023/01/14 11:51:38;;;;;;;;;;;;;;;;;;5017712;28;4697;-61
2023/01/14 11:54:03;;;;;;;;;;;;;;;;;;4985564;28;5039;-66
2023/01/14 11:56:30;;;;;;;;;;;;;;;;;;4987311;28;5202;-67
2023/01/14 11:58:55;;;;;;;;;;;;;;;;;;4996870;28;5108;-66
2023/01/14 12:01:23;;;;;;;;;;;;;;;;;;5005568;28;4527;-63
2023/01/14 12:04:08;;;;;;;;;;;;;;;;;;4988630;28;3251;-68
2023/01/14 12:06:51;;;;;;;;;;;;;;;;;;4985108;28;5335;-67
2023/01/14 12:09:36;;;;;;;;;;;;;;;;;;4981880;28;4598;-65
2023/01/14 12:12:06;;;;;;;;;;;;;;;;;;4998400;28;5120;-63
2023/01/14 12:17:17;;;;;;;;;;;;;;;;;;4978596;28;5124;-67
2023/01/14 12:19:50;;;;;;;;;;;;;;;;;;4988317;28;5082;-63
2023/01/14 12:22:17;;;;;;;;;;;;;;;;;;4981478;28;5332;-65
2023/01/14 12:24:51;;;;;;;;;;;;;;;;;;4980733;28;3501;-63
2023/01/14 12:27:41;;;;;;;;;;;;;;;;;;4979258;28;5044;-63
2023/01/14 12:30:10;;;;;;;;;;;;;;;;;;4988325;28;4418;-63
2023/01/14 12:32:36;;;;;;;;;;;;;;;;;;4971718;28;5214;-61
2023/01/14 12:35:01;;;;;;;;;;;;;;;;;;4983004;28;5353;-61
2023/01/14 12:37:27;;;;;;;;;;;;;;;;;;4999833;28;5073;-66
2023/01/14 12:45:52;;;;;;;;;;;;;;;;;;4919901;29;4974;-64
2023/01/14 12:48:18;;;;;;;;;;;;;;;;;;4930272;29;3507;-68
2023/01/14 12:50:52;;;;;;;;;;;;;;;;;;4958996;28;4559;-66
2023/01/14 12:53:19;;;;;;;;;;;;;;;;;;4999515;28;5032;-66
2023/01/14 12:55:45;;;;;;;;;;;;;;;;;;4994302;28;5131;-65
2023/01/14 12:58:20;;;;;;;;;;;;;;;;;;5001738;28;5116;-68
2023/01/14 13:00:50;;;;;;;;;;;;;;;;;;4998456;28;3903;-65
2023/01/14 13:03:20;;;;;;;;;;;;;;;;;;4996763;28;5132;-64
2023/01/14 13:05:45;;;;;;;;;;;;;;;;;;4979210;28;4819;-65
2023/01/14 13:08:18;;;;;;;;;;;;;;;;;;4998269;28;4716;-68
2023/01/14 13:10:45;;;;;;;;;;;;;;;;;;4992297;28;4534;-63
2023/01/14 13:13:17;;;;;;;;;;;;;;;;;;4995345;28;5123;-66
2023/01/14 13:15:43;;;;;;;;;;;;;;;;;;4997980;28;3678;-66
2023/01/14 13:18:28;;;;;;;;;;;;;;;;;;5004546;28;5010;-67
2023/01/14 13:20:53;;;;;;;;;;;;;;;;;;4996422;28;4524;-66
2023/01/14 13:23:38;;;;;;;;;;;;;;;;;;5000668;28;5814;-66
2023/01/14 13:26:17;;;;;;;;;;;;;;;;;;4999102;28;5124;-65
2023/01/14 13:29:01;;;;;;;;;;;;;;;;;;4996157;28;5121;-64
2023/01/14 13:31:31;;;;;;;;;;;;;;;;;;4999091;28;5036;-69
2023/01/14 13:34:17;;;;;;;;;;;;;;;;;;4999593;28;5224;-69
2023/01/14 13:36:42;;;;;;;;;;;;;;;;;;4983557;28;3500;-67
2023/01/14 13:39:10;;;;;;;;;;;;;;;;;;5012302;28;4848;-66
2023/01/14 13:41:39;;;;;;;;;;;;;;;;;;4998503;28;5066;-64
2023/01/14 13:44:05;;;;;;;;;;;;;;;;;;4995622;28;5116;-68
2023/01/14 13:46:37;;;;;;;;;;;;;;;;;;5000913;28;4722;-66
2023/01/14 13:49:04;;;;;;;;;;;;;;;;;;5009920;28;5095;-68
2023/01/14 13:51:50;;;;;;;;;;;;;;;;;;5000281;28;3448;-62
2023/01/14 13:54:19;;;;;;;;;;;;;;;;;;4998231;28;5035;-64
2023/01/14 13:56:49;;;;;;;;;;;;;;;;;;5005614;28;5176;-67
2023/01/14 13:59:15;;;;;;;;;;;;;;;;;;4993653;28;4980;-65
2023/01/14 14:01:40;;;;;;;;;;;;;;;;;;4980891;28;5085;-63
2023/01/14 14:04:08;;;;;;;;;;;;;;;;;;4986543;28;5053;-61
2023/01/14 14:06:35;;;;;;;;;;;;;;;;;;4982585;28;3577;-64
2023/01/14 14:09:19;;;;;;;;;;;;;;;;;;4984592;28;4941;-66
2023/01/14 14:11:59;;;;;;;;;;;;;;;;;;5011299;28;5012;-64
2023/01/14 14:14:35;;;;;;;;;;;;;;;;;;4982138;28;5513;-63
2023/01/14 14:17:02;;;;;;;;;;;;;;;;;;5010428;28;5133;-65
2023/01/14 14:19:32;;;;;;;;;;;;;;;;;;4977104;28;5048;-63
2023/01/14 14:22:05;;;;;;;;;;;;;;;;;;4969591;28;5342;-65
2023/01/14 14:24:33;;;;;;;;;;;;;;;;;;4988127;28;3454;-67
2023/01/14 14:26:59;;;;;;;;;;;;;;;;;;4981976;28;5039;-67
2023/01/14 14:29:24;;;;;;;;;;;;;;;;;;4987562;28;5638;-66
2023/01/14 14:31:49;;;;;;;;;;;;;;;;;;5000760;28;4724;-65
2023/01/14 14:34:20;;;;;;;;;;;;;;;;;;5005827;28;5048;-64
2023/01/14 14:36:48;;;;;;;;;;;;;;;;;;4986252;28;3482;-69
2023/01/14 14:39:26;;;;;;;;;;;;;;;;;;4982937;28;5046;-67
2023/01/14 14:41:51;;;;;;;;;;;;;;;;;;4979545;28;5065;-65
2023/01/14 14:44:18;;;;;;;;;;;;;;;;;;4993649;28;4776;-64
2023/01/14 14:46:43;;;;;;;;;;;;;;;;;;5000722;28;5044;-61
2023/01/14 14:49:16;;;;;;;;;;;;;;;;;;5000406;28;5104;-63
2023/01/14 14:51:43;;;;;;;;;;;;;;;;;;4999408;28;3639;-63
2023/01/14 14:54:20;;;;;;;;;;;;;;;;;;4986603;28;4532;-64
2023/01/14 14:56:46;;;;;;;;;;;;;;;;;;4995195;28;5037;-68
2023/01/14 14:59:11;;;;;;;;;;;;;;;;;;4997796;28;5080;-68
2023/01/14 15:01:36;;;;;;;;;;;;;;;;;;5007840;28;5035;-65
2023/01/14 15:04:01;;;;;;;;;;;;;;;;;;5006959;28;5090;-67
2023/01/14 15:06:30;;;;;;;;;;;;;;;;;;5007138;28;1410;-67
2023/01/14 15:08:57;;;;;;;;;;;;;;;;;;5004344;28;5078;-66
2023/01/14 15:11:25;;;;;;;;;;;;;;;;;;5004500;28;5217;-67
2023/01/14 15:13:50;;;;;;;;;;;;;;;;;;5005612;28;4618;-65
2023/01/14 15:16:17;;;;;;;;;;;;;;;;;;5007612;28;4520;-67
2023/01/14 15:18:49;;;;;;;;;;;;;;;;;;5003080;28;3383;-64
2023/01/14 15:21:18;;;;;;;;;;;;;;;;;;4998288;28;5184;-63
2023/01/14 15:23:45;;;;;;;;;;;;;;;;;;4978395;28;4979;-63
2023/01/14 15:26:18;;;;;;;;;;;;;;;;;;4981480;28;5139;-65
2023/01/14 15:28:44;;;;;;;;;;;;;;;;;;4980898;28;5230;-64
2023/01/14 15:31:16;;;;;;;;;;;;;;;;;;4982702;28;5200;-66
2023/01/14 15:33:42;;;;;;;;;;;;;;;;;;4981769;28;3365;-65
2023/01/14 15:36:10;;;;;;;;;;;;;;;;;;4983011;28;5069;-65
2023/01/14 15:38:36;;;;;;;;;;;;;;;;;;4986604;28;5176;-62
2023/01/14 15:41:08;;;;;;;;;;;;;;;;;;4981867;28;5075;-66
2023/01/14 15:43:38;;;;;;;;;;;;;;;;;;4986750;28;4910;-66
2023/01/14 15:46:04;;;;;;;;;;;;;;;;;;4980995;28;5111;-62
2023/01/14 15:48:30;;;;;;;;;;;;;;;;;;4980531;28;3675;-66
2023/01/14 15:50:58;;;;;;;;;;;;;;;;;;4981331;28;4435;-65
2023/01/14 15:53:27;;;;;;;;;;;;;;;;;;4980073;28;5026;-65
2023/01/14 15:56:10;;;;;;;;;;;;;;;;;;4979659;28;5134;-65
2023/01/14 15:58:36;;;;;;;;;;;;;;;;;;4983593;28;5086;-66
2023/01/14 16:01:22;;;;;;;;;;;;;;;;;;4990729;28;5355;-65
2023/01/14 16:03:48;;;;;;;;;;;;;;;;;;4973024;28;1265;-66
2023/01/14 16:06:22;;;;;;;;;;;;;;;;;;4981696;28;5042;-65
2023/01/14 16:08:47;;;;;;;;;;;;;;;;;;4986423;28;4974;-65
2023/01/14 16:11:12;;;;;;;;;;;;;;;;;;4981664;28;5065;-67
2023/01/14 16:13:38;;;;;;;;;;;;;;;;;;4985801;28;4815;-65
2023/01/14 16:16:06;;;;;;;;;;;;;;;;;;4983480;28;5380;-66
2023/01/14 16:18:31;;;;;;;;;;;;;;;;;;4987189;28;4315;-65
2023/01/14 16:20:56;;;;;;;;;;;;;;;;;;4982261;28;5186;-62
2023/01/14 16:23:23;;;;;;;;;;;;;;;;;;4981838;28;5005;-64
2023/01/14 16:25:50;;;;;;;;;;;;;;;;;;4985255;28;4992;-64
2023/01/14 16:28:15;;;;;;;;;;;;;;;;;;4994404;28;5232;-61
2023/01/14 16:30:40;;;;;;;;;;;;;;;;;;4983674;28;4347;-64
2023/01/14 16:33:06;;;;;;;;;;;;;;;;;;4982060;28;4992;-60
2023/01/14 16:35:31;;;;;;;;;;;;;;;;;;4986380;28;5102;-63
2023/01/14 16:37:56;;;;;;;;;;;;;;;;;;4984596;28;4544;-64
2023/01/14 16:40:26;;;;;;;;;;;;;;;;;;4982318;28;5987;-64
2023/01/14 16:42:51;;;;;;;;;;;;;;;;;;4981187;28;3440;-62
2023/01/14 16:45:17;;;;;;;;;;;;;;;;;;4982574;28;5434;-66
2023/01/14 16:47:42;;;;;;;;;;;;;;;;;;4981874;28;5402;-65
2023/01/14 16:50:08;;;;;;;;;;;;;;;;;;4964169;28;5166;-65
2023/01/14 16:52:33;;;;;;;;;;;;;;;;;;4983681;28;5000;-65
2023/01/14 16:54:58;;;;;;;;;;;;;;;;;;4987655;28;5149;-64
2023/01/14 16:57:24;;;;;;;;;;;;;;;;;;4984383;28;3529;-63
2023/01/14 16:59:49;;;;;;;;;;;;;;;;;;4984352;28;5058;-63
2023/01/14 17:02:14;;;;;;;;;;;;;;;;;;4978819;28;5001;-61
2023/01/14 17:04:39;;;;;;;;;;;;;;;;;;4980046;28;5194;-64
2023/01/14 17:07:05;;;;;;;;;;;;;;;;;;4984161;28;5172;-63
2023/01/14 17:09:31;;;;;;;;;;;;;;;;;;4982518;28;3207;-63
2023/01/14 17:14:40;;;;;;;;;;;;;;;;;;4995132;28;4617;-64
2023/01/14 17:17:06;;;;;;;;;;;;;;;;;;4980327;28;4940;-63
2023/01/14 17:19:31;;;;;;;;;;;;;;;;;;4981971;28;5021;-63
2023/01/14 17:21:56;;;;;;;;;;;;;;;;;;4984467;28;4971;-62
2023/01/14 17:24:21;;;;;;;;;;;;;;;;;;4982273;28;3366;-64
2023/01/14 17:26:46;;;;;;;;;;;;;;;;;;4983589;28;5052;-64
2023/01/14 17:29:13;;;;;;;;;;;;;;;;;;4973551;28;4929;-64
2023/01/14 17:31:38;;;;;;;;;;;;;;;;;;4984196;28;5349;-62
2023/01/14 17:34:03;;;;;;;;;;;;;;;;;;4987348;28;5183;-64
2023/01/14 17:36:29;;;;;;;;;;;;;;;;;;5004701;28;3374;-64
2023/01/14 17:38:54;;;;;;;;;;;;;;;;;;4998510;28;5066;-63
2023/01/14 17:44:04;;;;;;;;;;;;;;;;;;4977648;28;5032;-64
2023/01/14 17:46:29;;;;;;;;;;;;;;;;;;4977937;28;5108;-63
2023/01/14 17:48:55;;;;;;;;;;;;;;;;;;4993394;28;5081;-65
2023/01/14 17:51:20;;;;;;;;;;;;;;;;;;4976929;28;3479;-65